Time;durP1;ratioP1;P1;durP2;ratioP2;P2;SDS_P1;SDS_P2;PMS_P1;PMS_P2;Temp;Humidity;BMP_temperature;BMP_pressure;BME280_temperature;BME280_humidity;BME280_pressure;Samples;Min_cycle;Max_cycle;Signal;HPM_P1;HPM_P2
2022/05/10 00:00:08;;;;;;;16.35;8.52;;;11.80;99.90;;;;;;5052440;28;20083;-68
2022/05/10 00:02:34;;;;;;;17.70;8.48;;;11.80;99.90;;;;;;5038768;28;20082;-68
2022/05/10 00:05:00;;;;;;;15.50;8.27;;;11.80;99.90;;;;;;5077370;28;20492;-67
2022/05/10 00:07:30;;;;;;;18.45;9.40;;;11.80;99.90;;;;;;5036963;28;20078;-67
2022/05/10 00:09:55;;;;;;;19.95;9.52;;;11.80;99.90;;;;;;5078200;28;20037;-68
2022/05/10 00:12:21;;;;;;;23.88;8.75;;;11.70;99.90;;;;;;5047811;28;20055;-68
2022/05/10 00:14:46;;;;;;;20.92;8.80;;;11.60;99.90;;;;;;5052255;28;20083;-68
2022/05/10 00:17:26;;;;;;;22.88;8.60;;;11.50;99.90;;;;;;5048958;28;20075;-67
2022/05/10 00:19:53;;;;;;;21.15;8.93;;;11.50;99.90;;;;;;5046204;28;20059;-67
2022/05/10 00:22:18;;;;;;;23.45;10.02;;;11.50;99.90;;;;;;5014852;28;20072;-68
2022/05/10 00:24:44;;;;;;;19.67;8.85;;;11.50;99.90;;;;;;5050669;28;20061;-67
2022/05/10 00:27:10;;;;;;;24.88;10.07;;;11.50;99.90;;;;;;5053784;28;20566;-68
2022/05/10 00:29:36;;;;;;;19.77;9.65;;;11.40;99.90;;;;;;5051049;28;20071;-68
2022/05/10 00:32:01;;;;;;;17.85;8.73;;;11.20;99.90;;;;;;5053370;28;20072;-67
2022/05/10 00:34:28;;;;;;;18.65;9.43;;;11.20;99.90;;;;;;5051134;28;20037;-67
2022/05/10 00:36:54;;;;;;;17.55;9.63;;;11.20;99.90;;;;;;5050547;28;20041;-67
2022/05/10 00:39:20;;;;;;;20.70;9.95;;;11.20;99.90;;;;;;5029181;28;20132;-67
2022/05/10 00:41:53;;;;;;;22.95;10.55;;;11.20;99.90;;;;;;5069050;28;20132;-67
2022/05/10 00:44:40;;;;;;;21.55;10.05;;;11.30;99.90;;;;;;5048648;28;20029;-67
2022/05/10 00:47:18;;;;;;;19.48;9.82;;;11.30;99.90;;;;;;5067046;28;20033;-67
2022/05/10 00:50:04;;;;;;;21.15;10.15;;;11.20;99.90;;;;;;5058311;28;20033;-67
2022/05/10 00:52:50;;;;;;;14.75;9.13;;;11.20;99.90;;;;;;5067598;28;20480;-67
2022/05/10 00:55:25;;;;;;;16.17;9.23;;;11.20;99.90;;;;;;5080649;28;20041;-67
2022/05/10 00:57:56;;;;;;;20.25;10.27;;;11.20;99.90;;;;;;5051286;28;20476;-67
2022/05/10 01:00:24;;;;;;;16.35;9.40;;;11.20;99.90;;;;;;5040232;28;20044;-67
2022/05/10 01:03:06;;;;;;;19.25;9.98;;;11.20;99.90;;;;;;5052507;28;20041;-67
2022/05/10 01:05:54;;;;;;;18.40;9.50;;;11.10;99.90;;;;;;5051541;28;20063;-67
2022/05/10 01:08:23;;;;;;;20.38;10.05;;;11.20;99.90;;;;;;5071136;28;20244;-67
2022/05/10 01:10:56;;;;;;;20.77;9.65;;;11.10;99.90;;;;;;5042138;28;20518;-67
2022/05/10 01:13:30;;;;;;;20.48;9.77;;;11.10;99.90;;;;;;5052560;28;20041;-67
2022/05/10 01:16:13;;;;;;;23.58;11.07;;;11.10;99.90;;;;;;5083857;28;20036;-68
2022/05/10 01:18:40;;;;;;;17.33;9.75;;;11.10;99.90;;;;;;5044102;28;20032;-68
2022/05/10 01:21:24;;;;;;;16.98;9.70;;;11.10;99.90;;;;;;5057533;28;20033;-67
2022/05/10 01:24:24;;;;;;;16.25;9.27;;;11.10;99.90;;;;;;5033496;28;20051;-67
2022/05/10 01:27:32;;;;;;;19.70;9.95;;;11.00;99.90;;;;;;5086996;28;20036;-67
2022/05/10 01:30:17;;;;;;;17.17;10.02;;;10.90;99.90;;;;;;5031206;28;20056;-68
2022/05/10 01:36:17;;;;;;;17.92;9.95;;;10.90;99.90;;;;;;5047621;28;20060;-67
2022/05/10 01:39:00;;;;;;;16.00;9.63;;;10.90;99.90;;;;;;5047064;28;20036;-67
2022/05/10 01:41:54;;;;;;;21.35;10.05;;;10.80;99.90;;;;;;5047664;28;20119;-67
2022/05/10 01:44:49;;;;;;;17.55;9.98;;;10.80;99.90;;;;;;5048763;28;20042;-67
2022/05/10 01:47:38;;;;;;;18.15;10.32;;;10.80;99.90;;;;;;5079733;28;20039;-68
2022/05/10 01:50:17;;;;;;;18.75;8.98;;;10.70;99.90;;;;;;5078971;28;20041;-67
2022/05/10 01:52:53;;;;;;;19.33;10.52;;;10.70;99.90;;;;;;5062566;28;20044;-67
2022/05/10 01:55:34;;;;;;;16.00;10.27;;;10.70;99.90;;;;;;5052165;28;20120;-67
2022/05/10 01:58:03;;;;;;;16.02;9.90;;;10.70;99.90;;;;;;5047989;28;20108;-67
2022/05/10 02:00:32;;;;;;;19.08;10.60;;;10.70;99.90;;;;;;5051028;28;20029;-67
2022/05/10 02:03:05;;;;;;;19.60;10.45;;;10.70;99.90;;;;;;5050325;28;20076;-67
2022/05/10 02:05:34;;;;;;;18.38;10.70;;;10.70;99.90;;;;;;5049786;28;20076;-67
2022/05/10 02:08:08;;;;;;;18.90;10.20;;;10.70;99.90;;;;;;5052331;28;20044;-67
2022/05/10 02:10:41;;;;;;;21.15;11.52;;;10.70;99.90;;;;;;5043708;28;20103;-67
2022/05/10 02:13:17;;;;;;;20.77;10.65;;;10.70;99.90;;;;;;5033297;28;20080;-67
2022/05/10 02:15:58;;;;;;;20.50;10.52;;;10.80;99.90;;;;;;5051615;28;20045;-67
2022/05/10 02:18:36;;;;;;;23.00;10.68;;;10.80;99.90;;;;;;5048568;28;20495;-67
2022/05/10 02:21:12;;;;;;;23.80;11.23;;;10.80;99.90;;;;;;5050942;28;20052;-68
2022/05/10 02:23:46;;;;;;;23.60;11.02;;;10.90;99.90;;;;;;5051421;28;20484;-67
2022/05/10 02:26:15;;;;;;;20.88;10.77;;;10.90;99.90;;;;;;5042650;28;20124;-67
2022/05/10 02:28:49;;;;;;;17.70;10.60;;;10.90;99.90;;;;;;5038641;28;20128;-67
2022/05/10 02:34:39;;;;;;;22.55;10.80;;;11.00;99.90;;;;;;5035865;28;20091;-67
2022/05/10 02:37:04;;;;;;;19.27;10.93;;;11.00;99.90;;;;;;5080761;28;20064;-67
2022/05/10 02:39:30;;;;;;;21.20;11.93;;;11.10;99.90;;;;;;5050806;28;20079;-70
2022/05/10 02:41:58;;;;;;;23.10;11.85;;;11.10;99.90;;;;;;5050176;28;20060;-67
2022/05/10 02:44:23;;;;;;;20.70;10.43;;;11.10;99.90;;;;;;5026123;28;20037;-67
2022/05/10 02:46:49;;;;;;;23.23;12.32;;;11.10;99.90;;;;;;5045731;28;20435;-67
2022/05/10 02:49:14;;;;;;;23.30;12.75;;;11.20;99.90;;;;;;5047855;28;20044;-67
2022/05/10 02:51:40;;;;;;;25.02;12.50;;;11.20;99.90;;;;;;5038910;28;20542;-67
2022/05/10 02:54:05;;;;;;;24.08;12.55;;;11.20;99.90;;;;;;5049970;28;20033;-68
2022/05/10 02:56:32;;;;;;;25.30;13.00;;;11.30;99.90;;;;;;5031672;28;20412;-68
2022/05/10 02:59:05;;;;;;;22.70;12.38;;;11.30;99.90;;;;;;5054730;28;20167;-67
2022/05/10 03:01:43;;;;;;;20.33;12.13;;;11.30;99.90;;;;;;5047681;28;20043;-68
2022/05/10 03:04:10;;;;;;;22.73;12.75;;;11.30;99.90;;;;;;5042123;28;20044;-67
2022/05/10 03:06:37;;;;;;;28.38;13.43;;;11.40;99.90;;;;;;5048620;28;20052;-68
2022/05/10 03:09:04;;;;;;;21.80;12.50;;;11.30;99.90;;;;;;5054658;28;20049;-67
2022/05/10 03:11:30;;;;;;;26.38;15.20;;;11.40;99.90;;;;;;5053150;28;20594;-67
2022/05/10 03:13:55;;;;;;;22.45;13.05;;;11.40;99.90;;;;;;5050570;28;20139;-67
2022/05/10 03:16:25;;;;;;;27.65;14.65;;;11.40;99.90;;;;;;5049640;28;20395;-67
2022/05/10 03:18:52;;;;;;;22.75;12.48;;;11.30;99.90;;;;;;5050225;28;20515;-67
2022/05/10 03:21:18;;;;;;;23.70;13.95;;;11.30;99.90;;;;;;5048076;28;20142;-67
2022/05/10 03:23:43;;;;;;;26.35;13.48;;;11.30;99.90;;;;;;5050524;28;20115;-67
2022/05/10 03:26:12;;;;;;;22.73;13.13;;;11.30;99.90;;;;;;5049243;28;20045;-67
2022/05/10 03:28:38;;;;;;;22.50;13.02;;;11.30;99.90;;;;;;5049323;28;20051;-67
2022/05/10 03:31:05;;;;;;;23.38;12.85;;;11.30;99.90;;;;;;5031107;28;20423;-67
2022/05/10 03:33:31;;;;;;;25.48;12.80;;;11.30;99.90;;;;;;5049977;28;20060;-68
2022/05/10 03:35:57;;;;;;;27.67;13.43;;;11.30;99.90;;;;;;5041414;28;20048;-67
2022/05/10 03:38:23;;;;;;;22.20;13.18;;;11.30;99.90;;;;;;5057551;28;20048;-67
2022/05/10 03:40:48;;;;;;;28.85;12.52;;;11.30;99.90;;;;;;5032933;28;20041;-68
2022/05/10 03:43:14;;;;;;;25.52;13.77;;;11.30;99.90;;;;;;5033442;28;20036;-68
2022/05/10 03:45:39;;;;;;;28.70;14.25;;;11.30;99.90;;;;;;5055912;28;20398;-67
2022/05/10 03:48:06;;;;;;;31.30;14.80;;;11.40;99.90;;;;;;5050723;28;20507;-67
2022/05/10 03:50:32;;;;;;;25.92;14.70;;;11.40;99.90;;;;;;5048123;28;20063;-68
2022/05/10 03:52:57;;;;;;;28.23;15.35;;;11.40;99.90;;;;;;5031874;28;20048;-67
2022/05/10 03:55:27;;;;;;;29.60;14.50;;;11.40;99.90;;;;;;5049230;28;20044;-68
2022/05/10 03:57:53;;;;;;;27.13;15.48;;;11.40;99.90;;;;;;5051433;28;20082;-67
2022/05/10 04:00:25;;;;;;;27.92;14.57;;;11.50;99.90;;;;;;5056171;28;20079;-67
2022/05/10 04:02:52;;;;;;;30.88;14.63;;;11.50;99.90;;;;;;5048474;28;20045;-67
2022/05/10 04:05:27;;;;;;;24.92;13.98;;;11.50;99.90;;;;;;5048100;28;20037;-67
2022/05/10 04:07:53;;;;;;;26.70;14.00;;;11.50;99.90;;;;;;5059441;28;20040;-67
2022/05/10 04:10:20;;;;;;;26.08;14.82;;;11.50;99.90;;;;;;5050346;28;20511;-67
2022/05/10 04:12:46;;;;;;;30.30;14.45;;;11.50;99.90;;;;;;5045236;28;20041;-68
2022/05/10 04:15:15;;;;;;;22.67;13.55;;;11.60;99.90;;;;;;5050984;28;20763;-67
2022/05/10 04:17:44;;;;;;;22.13;13.13;;;11.60;99.90;;;;;;5050513;28;20044;-68
2022/05/10 04:20:12;;;;;;;24.20;15.02;;;11.60;99.90;;;;;;5042509;28;20044;-68
2022/05/10 04:22:38;;;;;;;27.63;14.40;;;11.60;99.90;;;;;;5044562;28;20060;-68
2022/05/10 04:25:04;;;;;;;28.08;14.27;;;11.60;99.90;;;;;;5050606;28;20080;-68
2022/05/10 04:27:30;;;;;;;28.58;15.23;;;11.60;99.90;;;;;;5046340;28;20174;-68
2022/05/10 04:29:55;;;;;;;22.42;14.52;;;11.60;99.90;;;;;;5050346;28;20120;-68
2022/05/10 04:32:21;;;;;;;27.80;15.68;;;11.60;99.90;;;;;;5050585;28;20036;-68
2022/05/10 04:34:46;;;;;;;29.05;15.10;;;11.60;99.90;;;;;;5046590;28;20139;-68
2022/05/10 04:37:17;;;;;;;26.83;14.70;;;11.70;99.90;;;;;;5050867;28;20033;-68
2022/05/10 04:42:27;;;;;;;29.98;15.65;;;11.70;99.90;;;;;;5045714;28;20482;-68
2022/05/10 04:44:52;;;;;;;32.08;16.38;;;11.70;99.90;;;;;;5063538;28;20100;-68
2022/05/10 04:47:18;;;;;;;29.48;15.50;;;11.70;99.90;;;;;;5048440;28;20041;-68
2022/05/10 04:49:43;;;;;;;26.27;14.60;;;11.80;99.90;;;;;;5049474;28;20141;-68
2022/05/10 04:52:10;;;;;;;25.67;15.10;;;11.80;99.90;;;;;;5048684;28;20094;-67
2022/05/10 04:54:37;;;;;;;29.00;15.32;;;11.80;99.90;;;;;;5049384;28;20041;-67
2022/05/10 04:57:03;;;;;;;27.35;15.50;;;11.90;99.90;;;;;;5050048;28;20373;-67
2022/05/10 04:59:28;;;;;;;27.80;15.43;;;11.90;99.90;;;;;;5046714;28;20040;-67
2022/05/10 05:01:54;;;;;;;27.90;14.55;;;12.00;99.90;;;;;;5054907;28;20049;-67
2022/05/10 05:04:19;;;;;;;27.60;15.02;;;12.00;99.90;;;;;;5033730;28;20079;-67
2022/05/10 05:06:45;;;;;;;23.55;14.85;;;12.00;99.90;;;;;;5049793;28;20034;-67
2022/05/10 05:09:11;;;;;;;27.20;15.90;;;12.10;99.90;;;;;;5048210;28;20131;-67
2022/05/10 05:11:36;;;;;;;29.88;15.90;;;12.10;99.90;;;;;;5067519;28;20037;-68
2022/05/10 05:14:02;;;;;;;29.02;15.93;;;12.20;99.90;;;;;;5053451;28;20048;-67
2022/05/10 05:16:27;;;;;;;29.23;16.63;;;12.30;99.90;;;;;;5052946;28;20059;-67
2022/05/10 05:18:53;;;;;;;30.20;15.82;;;12.30;99.90;;;;;;5052618;28;20513;-67
2022/05/10 05:21:18;;;;;;;27.92;15.90;;;12.40;99.90;;;;;;5051459;28;20040;-67
2022/05/10 05:23:44;;;;;;;31.38;16.27;;;12.50;99.90;;;;;;5056002;28;20040;-67
2022/05/10 05:26:11;;;;;;;31.33;16.55;;;12.60;99.90;;;;;;5052141;28;20036;-67
2022/05/10 05:28:37;;;;;;;27.38;16.58;;;12.70;99.90;;;;;;5058638;28;20033;-68
2022/05/10 05:31:03;;;;;;;33.83;16.98;;;12.80;99.90;;;;;;5035533;28;20094;-67
2022/05/10 05:33:29;;;;;;;29.05;16.95;;;12.90;99.90;;;;;;5053113;28;20048;-69
2022/05/10 05:35:59;;;;;;;34.28;17.45;;;13.00;99.90;;;;;;5052220;28;20036;-69
2022/05/10 05:38:26;;;;;;;31.25;17.42;;;13.10;99.90;;;;;;5059146;28;20044;-69
2022/05/10 05:40:52;;;;;;;32.50;17.45;;;13.20;99.90;;;;;;5045879;28;20067;-69
2022/05/10 05:43:20;;;;;;;32.20;17.58;;;13.30;99.90;;;;;;5045930;28;20036;-69
2022/05/10 05:45:46;;;;;;;33.72;17.73;;;13.50;99.90;;;;;;5040812;28;20068;-69
2022/05/10 05:48:12;;;;;;;32.03;17.98;;;13.60;99.90;;;;;;5063968;28;20043;-69
2022/05/10 05:50:37;;;;;;;30.15;16.58;;;13.70;99.90;;;;;;5051696;28;20037;-69
2022/05/10 05:53:04;;;;;;;35.20;18.08;;;13.80;99.90;;;;;;5043576;28;20072;-69
2022/05/10 05:55:30;;;;;;;31.08;17.35;;;14.00;99.90;;;;;;5048491;28;20044;-69
2022/05/10 05:57:57;;;;;;;31.52;17.00;;;14.00;99.90;;;;;;5056465;28;20024;-68
2022/05/10 06:00:24;;;;;;;30.23;16.70;;;14.20;99.90;;;;;;5059552;28;20128;-68
2022/05/10 06:02:51;;;;;;;31.65;16.98;;;14.30;99.90;;;;;;5052300;28;20029;-68
2022/05/10 06:05:17;;;;;;;38.00;16.98;;;14.50;99.90;;;;;;5054400;28;20087;-68
2022/05/10 06:07:42;;;;;;;29.65;16.20;;;14.60;99.90;;;;;;5050809;28;20029;-69
2022/05/10 06:10:10;;;;;;;28.85;16.27;;;14.70;99.90;;;;;;5055371;28;20459;-68
2022/05/10 06:12:37;;;;;;;28.52;16.52;;;14.90;99.90;;;;;;5046118;28;20037;-69
2022/05/10 06:15:09;;;;;;;32.53;17.38;;;15.10;99.90;;;;;;5045838;28;20051;-69
2022/05/10 06:17:37;;;;;;;27.80;16.17;;;15.20;99.90;;;;;;5048030;28;20052;-69
2022/05/10 06:20:06;;;;;;;33.20;17.00;;;15.40;99.90;;;;;;5043181;28;20036;-69
2022/05/10 06:22:33;;;;;;;37.20;16.67;;;15.60;99.90;;;;;;5060486;28;20036;-69
2022/05/10 06:24:58;;;;;;;28.90;16.17;;;15.70;99.90;;;;;;5041928;28;20071;-68
2022/05/10 06:27:24;;;;;;;30.10;16.17;;;15.90;99.90;;;;;;5044430;28;20851;-68
2022/05/10 06:29:49;;;;;;;29.13;16.70;;;16.00;99.90;;;;;;5043406;28;20040;-69
2022/05/10 06:32:24;;;;;;;29.52;16.23;;;16.20;99.90;;;;;;5043027;28;20388;-69
2022/05/10 06:34:50;;;;;;;33.75;17.02;;;16.30;99.90;;;;;;5031226;28;20045;-69
2022/05/10 06:40:10;;;;;;;26.77;15.82;;;16.40;99.90;;;;;;5043126;28;20075;-69
2022/05/10 06:42:36;;;;;;;34.03;16.25;;;16.50;99.90;;;;;;5047978;28;20467;-70
2022/05/10 06:45:03;;;;;;;26.35;15.48;;;16.60;99.90;;;;;;5049613;28;20071;-70
2022/05/10 06:47:28;;;;;;;26.15;15.45;;;16.70;99.90;;;;;;5043867;28;20511;-68
2022/05/10 06:49:54;;;;;;;29.40;16.40;;;16.80;99.90;;;;;;5030380;28;20073;-70
2022/05/10 06:52:19;;;;;;;28.23;15.88;;;17.00;99.90;;;;;;5044177;28;20091;-70
2022/05/10 06:54:45;;;;;;;25.50;15.40;;;17.10;99.90;;;;;;5052813;28;20087;-69
2022/05/10 06:57:11;;;;;;;27.60;15.82;;;17.30;99.90;;;;;;5043350;28;20036;-70
2022/05/10 06:59:36;;;;;;;27.65;15.93;;;17.60;99.90;;;;;;5048746;28;20075;-70
2022/05/10 07:02:02;;;;;;;26.92;15.10;;;17.80;99.90;;;;;;5049115;28;20053;-70
2022/05/10 07:04:28;;;;;;;30.17;14.27;;;18.00;99.90;;;;;;5049985;28;20479;-70
2022/05/10 07:06:53;;;;;;;25.80;15.43;;;18.20;99.90;;;;;;5044938;28;20037;-69
2022/05/10 07:09:19;;;;;;;23.25;13.98;;;18.30;99.90;;;;;;5049531;28;20121;-71
2022/05/10 07:11:46;;;;;;;27.13;14.50;;;18.50;99.90;;;;;;5049043;28;20395;-71
2022/05/10 07:14:13;;;;;;;25.23;13.95;;;18.60;99.90;;;;;;5052307;28;20041;-70
2022/05/10 07:16:38;;;;;;;24.63;14.32;;;18.70;99.90;;;;;;5050236;28;20040;-73
2022/05/10 07:19:04;;;;;;;23.35;13.90;;;18.80;99.90;;;;;;5046591;28;20032;-70
2022/05/10 07:21:30;;;;;;;19.98;12.85;;;18.90;99.90;;;;;;5047009;28;20041;-71
2022/05/10 07:23:56;;;;;;;22.40;13.82;;;19.00;99.90;;;;;;5029828;28;20044;-71
2022/05/10 07:26:21;;;;;;;22.95;13.90;;;19.10;99.90;;;;;;5035849;28;20472;-70
2022/05/10 07:28:47;;;;;;;26.55;12.60;;;19.20;99.90;;;;;;5051158;28;20039;-69
2022/05/10 07:31:14;;;;;;;21.77;12.35;;;19.30;99.90;;;;;;5047001;28;20047;-70
2022/05/10 07:33:39;;;;;;;22.70;12.90;;;19.40;99.90;;;;;;5045810;28;20093;-70
2022/05/10 07:38:49;;;;;;;26.95;12.07;;;19.50;99.90;;;;;;5047006;28;20075;-71
2022/05/10 07:41:18;;;;;;;19.48;11.30;;;19.60;99.90;;;;;;5031720;28;20455;-70
2022/05/10 07:43:44;;;;;;;21.45;11.07;;;19.70;99.90;;;;;;5047210;28;20033;-69
2022/05/10 07:46:10;;;;;;;21.45;10.98;;;19.80;99.90;;;;;;5049005;28;20094;-71
2022/05/10 07:48:36;;;;;;;20.42;11.93;;;19.90;99.90;;;;;;5045913;28;20037;-71
2022/05/10 07:51:02;;;;;;;24.25;12.07;;;20.10;99.90;;;;;;5045302;28;20102;-71
2022/05/10 07:53:28;;;;;;;20.88;10.95;;;20.30;99.90;;;;;;5040363;28;20041;-69
2022/05/10 07:55:54;;;;;;;19.02;10.27;;;20.40;99.90;;;;;;5043450;28;20515;-70
2022/05/10 07:58:20;;;;;;;20.08;10.85;;;20.50;99.90;;;;;;5048428;28;20048;-68
2022/05/10 08:00:45;;;;;;;18.63;9.93;;;20.60;99.90;;;;;;5048016;28;20041;-70
2022/05/10 08:03:18;;;;;;;19.25;10.10;;;20.70;99.90;;;;;;5046476;28;20049;-67
2022/05/10 08:05:44;;;;;;;18.85;10.52;;;20.70;99.90;;;;;;5047079;28;20075;-69
2022/05/10 08:08:13;;;;;;;21.77;10.48;;;20.80;99.90;;;;;;5077402;28;20036;-70
2022/05/10 08:10:41;;;;;;;20.88;10.57;;;20.80;99.90;;;;;;5045295;28;20060;-69
2022/05/10 08:13:18;;;;;;;19.70;9.65;;;20.70;99.90;;;;;;5037762;28;20041;-70
2022/05/10 08:15:44;;;;;;;17.08;9.35;;;20.60;99.90;;;;;;5044045;28;20049;-69
2022/05/10 08:18:11;;;;;;;15.77;9.18;;;20.60;99.90;;;;;;5048213;28;20033;-69
2022/05/10 08:20:38;;;;;;;15.20;10.05;;;20.50;99.90;;;;;;5024277;28;20037;-70
2022/05/10 08:23:06;;;;;;;15.95;10.32;;;20.40;99.90;;;;;;5050045;28;20044;-70
2022/05/10 08:25:32;;;;;;;17.80;10.00;;;20.30;99.90;;;;;;5049093;28;20587;-69
2022/05/10 08:27:57;;;;;;;19.48;10.70;;;20.30;99.90;;;;;;5047625;28;20087;-69
2022/05/10 08:30:23;;;;;;;21.45;10.95;;;20.30;99.90;;;;;;5049965;28;20049;-69
2022/05/10 08:32:48;;;;;;;19.13;11.30;;;20.20;99.90;;;;;;5047376;28;20037;-70
2022/05/10 08:35:14;;;;;;;17.20;10.63;;;20.20;99.90;;;;;;5050162;28;20041;-70
2022/05/10 08:37:39;;;;;;;16.77;10.23;;;20.30;99.90;;;;;;5043829;28;20113;-70
2022/05/10 08:40:12;;;;;;;26.63;11.50;;;20.20;99.90;;;;;;5045184;28;20124;-70
2022/05/10 08:42:47;;;;;;;22.13;11.63;;;20.30;99.90;;;;;;5049086;28;20037;-70
2022/05/10 08:45:13;;;;;;;19.63;10.93;;;20.40;99.90;;;;;;5050434;28;20029;-69
2022/05/10 08:47:41;;;;;;;16.48;10.80;;;20.40;99.90;;;;;;5047975;28;20103;-70
2022/05/10 08:50:11;;;;;;;18.48;10.77;;;20.40;99.90;;;;;;5055106;28;20124;-71
2022/05/10 08:52:40;;;;;;;19.77;11.07;;;20.50;99.90;;;;;;5061081;28;20071;-69
2022/05/10 08:55:08;;;;;;;23.65;11.38;;;20.50;99.90;;;;;;5050240;28;20049;-71
2022/05/10 08:57:53;;;;;;;19.50;10.73;;;20.50;99.90;;;;;;5053712;28;20071;-69
2022/05/10 09:00:18;;;;;;;19.02;11.35;;;20.60;99.90;;;;;;5054677;28;20514;-70
2022/05/10 09:02:50;;;;;;;17.23;11.35;;;20.60;99.90;;;;;;5030928;28;20024;-68
2022/05/10 09:05:28;;;;;;;;;;;20.60;99.90;;;;;;5052203;28;20507;-69
2022/05/10 09:08:06;;;;;;;20.17;11.18;;;20.60;99.90;;;;;;5054418;28;20046;-71
2022/05/10 09:10:40;;;;;;;19.83;12.32;;;20.70;99.90;;;;;;5049600;28;20091;-69
2022/05/10 09:13:10;;;;;;;17.10;11.82;;;20.70;99.90;;;;;;5051738;28;20044;-69
2022/05/10 09:15:40;;;;;;;21.38;12.10;;;20.80;99.90;;;;;;5050608;28;20040;-70
2022/05/10 09:18:18;;;;;;;15.93;11.25;;;20.80;99.90;;;;;;5050510;28;20040;-69
2022/05/10 09:21:24;;;;;;;19.00;12.13;;;20.90;99.90;;;;;;5044507;28;20045;-69
2022/05/10 09:24:01;;;;;;;22.20;11.88;;;21.00;99.90;;;;;;5066891;28;20154;-70
2022/05/10 09:26:48;;;;;;;22.35;12.30;;;21.20;99.90;;;;;;5046965;28;20471;-69
2022/05/10 09:29:27;;;;;;;25.45;11.63;;;21.40;99.90;;;;;;5032384;28;20033;-70
2022/05/10 09:34:49;;;;;;;19.15;11.95;;;21.80;99.90;;;;;;5054478;28;20059;-71
2022/05/10 09:37:41;;;;;;;21.85;12.38;;;22.00;99.90;;;;;;5055088;28;20041;-70
2022/05/10 09:40:12;;;;;;;18.15;13.48;;;22.20;99.90;;;;;;5066802;28;20037;-70
2022/05/10 09:42:42;;;;;;;22.90;13.13;;;22.40;99.90;;;;;;5043670;28;20114;-72
2022/05/10 09:45:20;;;;;;;17.20;12.90;;;22.50;99.90;;;;;;5049645;28;20045;-70
2022/05/10 09:48:02;;;;;;;19.77;13.70;;;22.50;99.90;;;;;;5056121;28;20050;-72
2022/05/10 09:50:57;;;;;;;19.55;13.48;;;22.50;99.90;;;;;;5058773;28;20059;-69
2022/05/10 09:53:31;;;;;;;24.75;14.77;;;22.40;99.90;;;;;;5047980;28;20420;-69
2022/05/10 09:56:32;;;;;;;22.25;14.50;;;22.40;99.90;;;;;;5036673;28;20057;-69
2022/05/10 09:59:09;;;;;;;27.35;14.85;;;22.40;99.90;;;;;;4992569;28;20046;-70
2022/05/10 10:01:57;;;;;;;21.38;14.65;;;22.50;99.90;;;;;;5044085;28;20139;-70
2022/05/10 10:04:34;;;;;;;21.00;14.38;;;22.50;99.90;;;;;;5051029;28;20094;-70
2022/05/10 10:07:18;;;;;;;21.30;14.30;;;22.60;99.90;;;;;;5048377;28;20048;-69
2022/05/10 10:09:49;;;;;;;16.00;12.90;;;22.60;99.90;;;;;;5044738;28;20155;-69
2022/05/10 10:12:30;;;;;;;18.88;12.95;;;22.60;99.90;;;;;;5050838;28;20044;-68
2022/05/10 10:14:55;;;;;;;19.75;13.52;;;22.60;99.90;;;;;;5046225;28;20492;-70
2022/05/10 10:17:24;;;;;;;18.55;12.77;;;22.60;99.90;;;;;;5048753;28;20040;-72
2022/05/10 10:19:53;;;;;;;16.98;12.73;;;22.70;99.90;;;;;;5051108;28;20120;-70
2022/05/10 10:22:33;;;;;;;18.67;12.60;;;22.80;99.90;;;;;;5050427;28;20040;-69
2022/05/10 10:25:14;;;;;;;20.45;13.18;;;22.80;99.90;;;;;;5031254;28;20045;-70
2022/05/10 10:27:50;;;;;;;17.10;12.30;;;22.90;99.90;;;;;;5048866;28;20033;-67
2022/05/10 10:30:27;;;;;;;23.40;12.57;;;22.90;99.90;;;;;;5048887;28;20511;-70
2022/05/10 10:33:00;;;;;;;17.77;12.85;;;22.80;99.90;;;;;;5049644;28;20514;-69
2022/05/10 10:35:40;;;;;;;22.40;12.70;;;22.80;99.90;;;;;;5050287;28;20068;-71
2022/05/10 10:38:16;;;;;;;18.42;11.82;;;22.80;99.90;;;;;;5049460;28;20043;-69
2022/05/10 10:40:50;;;;;;;13.98;11.55;;;22.80;99.90;;;;;;5049682;28;20353;-69
2022/05/10 10:43:48;;;;;;;22.27;12.15;;;22.90;99.90;;;;;;5052932;28;20395;-70
2022/05/10 10:46:44;;;;;;;16.75;11.15;;;22.90;99.90;;;;;;5049645;28;20799;-70
2022/05/10 10:49:16;;;;;;;15.20;12.00;;;22.90;99.90;;;;;;5032012;28;20476;-69
2022/05/10 10:51:42;;;;;;;18.00;12.55;;;22.80;99.90;;;;;;5048462;28;20086;-70
2022/05/10 10:54:22;;;;;;;22.00;12.80;;;22.80;99.90;;;;;;5035861;28;20495;-72
2022/05/10 10:57:09;;;;;;;13.60;9.93;;;22.60;99.90;;;;;;5037912;28;20041;-76
2022/05/10 10:59:45;;;;;;;17.75;9.13;;;22.60;99.90;;;;;;5045902;28;20033;-73
2022/05/10 11:02:39;;;;;;;14.70;9.45;;;22.50;99.90;;;;;;5048956;28;20079;-72
2022/05/10 11:05:09;;;;;;;13.35;8.70;;;22.40;99.90;;;;;;5033747;28;20068;-77
2022/05/10 11:07:53;;;;;;;17.55;9.35;;;22.30;99.90;;;;;;5038108;28;20040;-71
2022/05/10 11:10:24;;;;;;;14.45;9.60;;;22.10;99.90;;;;;;5043922;28;20488;-73
2022/05/10 11:13:08;;;;;;;17.83;9.35;;;22.10;99.90;;;;;;5048953;28;20041;-75
2022/05/10 11:15:49;;;;;;;15.82;8.75;;;22.10;99.90;;;;;;5044328;28;20056;-74
2022/05/10 11:18:32;;;;;;;23.30;9.88;;;22.20;99.90;;;;;;5048014;28;20110;-77
2022/05/10 11:21:28;;;;;;;17.42;9.63;;;22.40;99.90;;;;;;5082254;28;20506;-72
2022/05/10 11:24:23;;;;;;;18.40;9.70;;;22.60;99.90;;;;;;5047213;28;20484;-77
2022/05/10 11:27:13;;;;;;;16.67;9.77;;;22.70;99.90;;;;;;5048096;28;20037;-71
2022/05/10 11:30:12;;;;;;;15.30;9.30;;;22.80;99.90;;;;;;5046764;28;20120;-72
2022/05/10 11:32:38;;;;;;;18.42;8.85;;;22.80;99.90;;;;;;5044169;28;20106;-76
2022/05/10 11:35:15;;;;;;;13.93;9.32;;;22.90;99.90;;;;;;5046860;28;20446;-74
2022/05/10 11:38:02;;;;;;;16.23;9.35;;;23.00;99.90;;;;;;5049120;28;20124;-74
2022/05/10 11:40:43;;;;;;;19.75;9.23;;;23.10;99.90;;;;;;5046555;28;20063;-76
2022/05/10 11:43:16;;;;;;;20.27;8.05;;;23.10;99.90;;;;;;5047706;28;20033;-72
2022/05/10 11:46:09;;;;;;;12.05;8.15;;;23.20;99.90;;;;;;5048593;28;20045;-75
2022/05/10 11:48:43;;;;;;;16.13;8.30;;;23.30;99.90;;;;;;5073946;28;20466;-75
2022/05/10 11:54:37;;;;;;;14.82;8.45;;;23.40;99.90;;;;;;5029760;28;20151;-71
2022/05/10 11:57:04;;;;;;;15.63;8.88;;;23.20;98.40;;;;;;5046952;28;20105;-73
2022/05/10 11:59:36;;;;;;;15.43;8.70;;;23.10;97.20;;;;;;5080373;28;20055;-72
2022/05/10 12:02:04;;;;;;;16.17;8.75;;;23.00;99.90;;;;;;5049923;28;20048;-72
2022/05/10 12:04:46;;;;;;;15.77;8.88;;;23.00;99.90;;;;;;5048526;28;20037;-69
2022/05/10 12:07:23;;;;;;;15.48;8.50;;;23.00;99.90;;;;;;5040198;28;20033;-74
2022/05/10 12:09:52;;;;;;;14.75;7.80;;;22.90;99.90;;;;;;5046615;28;20037;-72
2022/05/10 12:12:33;;;;;;;16.20;7.88;;;23.00;99.40;;;;;;5048349;28;20045;-74
2022/05/10 12:21:20;;;;;;;11.40;7.15;;;22.90;99.90;;;;;;5049223;28;20134;-74
2022/05/10 12:24:36;;;;;;;14.93;7.28;;;22.70;98.10;;;;;;5061145;28;20079;-71
2022/05/10 12:27:08;;;;;;;13.25;7.03;;;22.50;96.50;;;;;;5040632;28;20060;-75
2022/05/10 12:29:39;;;;;;;8.73;6.35;;;22.50;99.90;;;;;;5052274;28;20404;-74
2022/05/10 12:32:30;;;;;;;10.63;6.40;;;22.50;99.90;;;;;;5050315;28;20048;-71
2022/05/10 12:34:57;;;;;;;12.10;6.80;;;22.70;99.90;;;;;;5044858;28;20488;-67
2022/05/10 12:37:25;;;;;;;17.02;7.50;;;22.80;99.90;;;;;;5081709;28;20037;-74
2022/05/10 12:39:54;;;;;;;13.85;8.07;;;22.90;99.90;;;;;;5049786;28;20049;-71
2022/05/10 12:42:45;;;;;;;12.43;7.32;;;23.10;99.90;;;;;;5050796;28;20037;-72
2022/05/10 12:45:33;;;;;;;15.35;6.90;;;23.10;99.70;;;;;;5044407;28;20058;-73
2022/05/10 12:48:17;;;;;;;12.98;7.25;;;23.10;99.30;;;;;;5051023;28;20051;-72
2022/05/10 12:51:01;;;;;;;9.48;6.40;;;23.00;99.90;;;;;;5046153;28;20045;-73
2022/05/10 12:53:47;;;;;;;15.63;6.55;;;23.00;99.90;;;;;;5065971;28;20076;-74
2022/05/10 12:56:18;;;;;;;15.32;6.88;;;22.90;99.90;;;;;;5048765;28;20048;-72
2022/05/10 12:58:51;;;;;;;12.25;6.90;;;22.70;99.90;;;;;;5048830;28;20060;-72
2022/05/10 13:01:17;;;;;;;;;;;22.50;99.60;;;;;;5080202;28;20048;-71
2022/05/10 13:03:49;;;;;;;11.10;6.70;;;22.30;99.90;;;;;;5048604;28;20048;-75
2022/05/10 13:06:50;;;;;;;13.00;6.22;;;22.10;99.90;;;;;;5049318;28;20044;-70
2022/05/10 13:09:35;;;;;;;12.93;5.85;;;22.10;99.90;;;;;;5046351;28;20043;-71
2022/05/10 13:12:18;;;;;;;12.15;6.88;;;22.00;99.90;;;;;;5082167;28;20049;-74
2022/05/10 13:14:52;;;;;;;13.95;6.80;;;22.00;99.90;;;;;;5047746;28;20045;-73
2022/05/10 13:17:28;;;;;;;16.95;6.75;;;21.90;99.90;;;;;;5046560;28;20115;-72
2022/05/10 13:19:54;;;;;;;14.70;6.10;;;21.90;99.90;;;;;;5048940;28;20114;-74
2022/05/10 13:22:21;;;;;;;13.10;5.68;;;21.90;99.90;;;;;;5083496;28;20041;-71